createdAt,value
2022-11-20T00:01:41.000Z,96502.59
2022-11-20T00:04:12.104Z,96493.94
2022-11-20T00:06:41.983Z,96511.22
2022-11-20T00:09:12.886Z,96520.91
2022-11-20T00:11:41.832Z,96502.00
2022-11-20T00:14:12.609Z,96506.72
2022-11-20T00:16:41.115Z,96514.88
2022-11-20T00:19:09.596Z,96509.41
2022-11-20T00:21:38.083Z,96506.94
2022-11-20T00:24:11.048Z,96515.78
2022-11-20T00:26:48.107Z,96505.84
2022-11-20T00:29:16.755Z,96509.88
2022-11-20T00:31:47.864Z,96522.22
2022-11-20T00:34:17.127Z,96517.75
2022-11-20T00:36:47.575Z,96522.47
2022-11-20T00:39:35.912Z,96525.88
2022-11-20T00:42:06.654Z,96515.41
2022-11-20T00:44:41.057Z,96513.03
2022-11-20T00:47:14.822Z,96521.16
2022-11-20T00:49:43.608Z,96524.03
2022-11-20T00:52:23.871Z,96530.88
2022-11-20T00:55:05.027Z,96530.56
2022-11-20T00:57:34.497Z,96529.03
2022-11-20T01:00:06.629Z,96513.03
2022-11-20T01:02:35.090Z,96530.31
2022-11-20T01:05:06.571Z,96508.59
2022-11-20T01:07:46.725Z,96520.41
2022-11-20T01:10:17.347Z,96526.53
2022-11-20T01:13:08.370Z,96533.66
2022-11-20T01:15:37.715Z,96536.53
2022-11-20T01:18:06.861Z,96529.97
2022-11-20T01:20:37.771Z,96515.03
2022-11-20T01:23:06.892Z,96542.09
2022-11-20T01:25:37.132Z,96531.78
2022-11-20T01:28:05.856Z,96545.16
2022-11-20T01:30:35.041Z,96541.34
2022-11-20T01:33:03.538Z,96533.06
2022-11-20T01:35:31.975Z,96535.75
2022-11-20T01:38:00.838Z,96534.38
2022-11-20T01:40:29.327Z,96538.06
2022-11-20T01:43:22.787Z,96544.22
2022-11-20T01:46:15.544Z,96541.97
2022-11-20T01:48:53.497Z,96541.78
2022-11-20T01:51:32.461Z,96549.59
2022-11-20T01:54:14.528Z,96554.75
2022-11-20T01:56:47.001Z,96548.06
2022-11-20T01:59:20.876Z,96542.06
2022-11-20T02:01:49.895Z,96549.41
2022-11-20T02:04:19.811Z,96544.63
2022-11-20T02:06:52.852Z,96548.88
2022-11-20T02:09:22.474Z,96546.84
2022-11-20T02:11:51.659Z,96542.34
2022-11-20T02:14:21.048Z,96542.13
2022-11-20T02:16:52.426Z,96551.53
2022-11-20T02:19:28.514Z,96553.56
2022-11-20T02:22:06.401Z,96547.31
2022-11-20T02:24:36.843Z,96557.78
2022-11-20T02:27:10.312Z,96561.97
2022-11-20T02:29:49.195Z,96557.41
2022-11-20T02:32:22.097Z,96568.16
2022-11-20T02:34:50.527Z,96558.91
2022-11-20T02:37:21.854Z,96557.53
2022-11-20T02:39:53.888Z,96556.44
2022-11-20T02:42:22.467Z,96555.09
2022-11-20T02:44:50.918Z,96550.50
2022-11-20T02:47:19.711Z,96549.41
2022-11-20T02:49:48.388Z,96550.22
2022-11-20T02:52:16.951Z,96547.63
2022-11-20T02:54:45.592Z,96547.31
2022-11-20T02:57:16.303Z,96549.44
2022-11-20T02:59:44.786Z,96555.94
2022-11-20T03:02:13.222Z,96554.66
2022-11-20T03:04:41.862Z,96551.47
2022-11-20T03:07:11.219Z,96548.06
2022-11-20T03:09:39.804Z,96546.69
2022-11-20T03:12:09.020Z,96544.13
2022-11-20T03:14:40.980Z,96533.91
2022-11-20T03:17:09.449Z,96540.31
2022-11-20T03:19:37.977Z,96546.56
2022-11-20T03:22:06.819Z,96542.09
2022-11-20T03:24:35.521Z,96539.25
2022-11-20T03:27:04.182Z,96552.56
2022-11-20T03:29:33.892Z,96546.78
2022-11-20T03:32:03.893Z,96552.81
2022-11-20T03:34:32.319Z,96549.66
2022-11-20T03:37:00.876Z,96548.41
2022-11-20T03:39:29.322Z,96541.03
2022-11-20T03:41:57.891Z,96555.16
2022-11-20T03:44:26.567Z,96544.19
2022-11-20T03:46:55.129Z,96547.31
2022-11-20T03:49:24.908Z,96548.91
2022-11-20T03:51:53.436Z,96547.84
2022-11-20T03:54:21.989Z,96543.66
2022-11-20T03:56:50.969Z,96543.91
2022-11-20T03:59:19.756Z,96548.31
2022-11-20T04:01:49.603Z,96540.00
2022-11-20T04:04:18.223Z,96542.31
2022-11-20T04:06:48.129Z,96542.63
2022-11-20T04:09:16.739Z,96549.69
2022-11-20T04:11:45.225Z,96545.25
2022-11-20T04:14:17.079Z,96542.09
2022-11-20T04:16:45.907Z,96536.31
2022-11-20T04:19:17.301Z,96537.72
2022-11-20T04:21:48.047Z,96533.94
2022-11-20T04:24:16.492Z,96535.63
2022-11-20T04:26:45.283Z,96532.56
2022-11-20T04:29:14.481Z,96529.00
2022-11-20T04:31:42.972Z,96537.97
2022-11-20T04:34:14.803Z,96522.50
2022-11-20T04:36:43.416Z,96529.78
2022-11-20T04:39:17.905Z,96533.22
2022-11-20T04:41:46.477Z,96533.19
2022-11-20T04:44:14.945Z,96531.13
2022-11-20T04:46:45.987Z,96523.50
2022-11-20T04:49:14.915Z,96526.94
2022-11-20T04:51:43.492Z,96519.53
2022-11-20T04:54:15.156Z,96527.19
2022-11-20T04:56:44.533Z,96530.28
2022-11-20T04:59:13.536Z,96520.09
2022-11-20T05:01:42.348Z,96528.50
2022-11-20T05:04:10.825Z,96543.13
2022-11-20T05:06:39.466Z,96536.09
2022-11-20T05:09:07.930Z,96536.84
2022-11-20T05:11:37.764Z,96537.13
2022-11-20T05:14:07.420Z,96543.66
2022-11-20T05:16:37.748Z,96536.34
2022-11-20T05:19:06.203Z,96549.94
2022-11-20T05:21:35.188Z,96547.09
2022-11-20T05:24:03.822Z,96552.81
2022-11-20T05:26:32.733Z,96560.16
2022-11-20T05:29:02.946Z,96560.38
2022-11-20T05:31:31.390Z,96553.09
2022-11-20T05:34:00.191Z,96554.91
2022-11-20T05:36:28.707Z,96564.09
2022-11-20T05:39:01.591Z,96559.41
2022-11-20T05:41:30.736Z,96563.56
2022-11-20T05:44:01.123Z,96560.16
2022-11-20T05:46:29.929Z,96561.19
2022-11-20T05:49:00.107Z,96556.66
2022-11-20T05:51:29.400Z,96566.69
2022-11-20T05:53:59.651Z,96570.31
2022-11-20T05:56:28.097Z,96573.19
2022-11-20T05:58:56.522Z,96563.78
2022-11-20T06:01:28.140Z,96567.34
2022-11-20T06:04:00.005Z,96568.91
2022-11-20T06:06:28.530Z,96558.22
2022-11-20T06:09:00.440Z,96566.09
2022-11-20T06:11:29.249Z,96557.78
2022-11-20T06:13:58.045Z,96573.09
2022-11-20T06:16:28.112Z,96567.38
2022-11-20T06:18:56.950Z,96565.38
2022-11-20T06:21:25.752Z,96569.44
2022-11-20T06:23:55.930Z,96575.94
2022-11-20T06:26:27.524Z,96567.09
2022-11-20T06:28:57.899Z,96570.59
2022-11-20T06:31:28.929Z,96558.22
2022-11-20T06:33:57.937Z,96567.31
2022-11-20T06:36:26.441Z,96575.59
2022-11-20T06:38:55.986Z,96566.88
2022-11-20T06:41:25.013Z,96566.97
2022-11-20T06:43:54.029Z,96572.09
2022-11-20T06:46:23.757Z,96578.56
2022-11-20T06:48:54.498Z,96575.31
2022-11-20T06:51:23.511Z,96579.63
2022-11-20T06:53:51.918Z,96585.97
2022-11-20T06:56:20.703Z,96589.28
2022-11-20T06:58:50.224Z,96586.03
2022-11-20T07:01:18.924Z,96590.50
2022-11-20T07:03:52.885Z,96590.72
2022-11-20T07:06:23.926Z,96585.22
2022-11-20T07:08:53.967Z,96608.00
2022-11-20T07:11:22.497Z,96606.56
2022-11-20T07:13:51.369Z,96609.06
2022-11-20T07:16:19.884Z,96602.28
2022-11-20T07:18:51.026Z,96613.94
2022-11-20T07:21:19.862Z,96599.88
2022-11-20T07:23:50.040Z,96606.41
2022-11-20T07:26:25.362Z,96611.97
2022-11-20T07:28:53.834Z,96610.34
2022-11-20T07:31:22.517Z,96606.06
2022-11-20T07:33:51.042Z,96617.69
2022-11-20T07:36:20.426Z,96620.19
2022-11-20T07:38:50.588Z,96624.22
2022-11-20T07:41:19.236Z,96625.91
2022-11-20T07:43:47.868Z,96621.59
2022-11-20T07:46:16.497Z,96608.06
2022-11-20T07:48:44.996Z,96616.91
2022-11-20T07:51:14.516Z,96617.94
2022-11-20T07:53:43.529Z,96615.53
2022-11-20T07:56:15.152Z,96617.38
2022-11-20T07:58:43.557Z,96628.38
2022-11-20T08:01:12.930Z,96631.81
2022-11-20T08:03:41.917Z,96628.31
2022-11-20T08:06:10.910Z,96628.78
2022-11-20T08:08:43.018Z,96626.53
2022-11-20T08:11:30.521Z,96619.41
2022-11-20T08:14:14.084Z,96629.31
2022-11-20T08:16:44.308Z,96621.72
2022-11-20T08:19:13.265Z,96619.44
2022-11-20T08:21:43.353Z,96629.97
2022-11-20T08:24:12.915Z,96636.22
2022-11-20T08:26:46.666Z,96639.91
2022-11-20T08:29:15.311Z,96633.16
2022-11-20T08:31:45.037Z,96645.81
2022-11-20T08:34:18.641Z,96642.09
2022-11-20T08:36:47.830Z,96641.66
2022-11-20T08:39:17.075Z,96635.31
2022-11-20T08:41:53.242Z,96637.28
2022-11-20T08:44:22.774Z,96636.16
2022-11-20T08:46:53.289Z,96635.38
2022-11-20T08:49:22.819Z,96632.91
2022-11-20T08:51:54.594Z,96630.34
2022-11-20T08:54:23.645Z,96627.28
2022-11-20T08:56:54.227Z,96636.41
2022-11-20T08:59:43.949Z,96626.22
2022-11-20T09:02:11.560Z,96631.41
2022-11-20T09:04:40.085Z,96627.19
2022-11-20T09:07:08.731Z,96636.72
2022-11-20T09:09:37.287Z,96636.72
2022-11-20T09:12:07.458Z,96626.31
2022-11-20T09:14:36.082Z,96639.66
2022-11-20T09:17:04.810Z,96636.50
2022-11-20T09:19:35.859Z,96632.88
2022-11-20T09:22:05.216Z,96624.97
2022-11-20T09:24:33.894Z,96629.47
2022-11-20T09:27:07.051Z,96636.16
2022-11-20T09:29:35.658Z,96628.59
2022-11-20T09:32:04.440Z,96623.66
2022-11-20T09:34:34.099Z,96626.66
2022-11-20T09:37:06.188Z,96617.94
2022-11-20T09:39:39.921Z,96623.72
2022-11-20T09:42:37.503Z,96625.13
2022-11-20T09:45:32.864Z,96627.00
2022-11-20T09:48:39.067Z,96614.72
2022-11-20T09:51:21.265Z,96616.19
2022-11-20T09:54:08.719Z,96621.38
2022-11-20T09:56:41.519Z,96609.66
2022-11-20T09:59:30.674Z,96632.13
2022-11-20T10:02:01.778Z,96631.63
2022-11-20T10:04:36.848Z,96643.66
2022-11-20T10:07:31.743Z,96630.13
2022-11-20T10:10:01.696Z,96629.94
2022-11-20T10:12:51.928Z,96623.38
2022-11-20T10:15:36.003Z,96634.41
2022-11-20T10:18:24.426Z,96624.75
2022-11-20T10:21:11.908Z,96631.59
2022-11-20T10:24:19.611Z,96628.22
2022-11-20T10:27:03.742Z,96623.69
2022-11-20T10:29:40.541Z,96627.38
2022-11-20T10:32:18.777Z,96619.13
2022-11-20T10:34:54.702Z,96618.81
2022-11-20T10:37:29.160Z,96620.69
2022-11-20T10:40:04.388Z,96620.38
2022-11-20T10:42:40.284Z,96626.19
2022-11-20T10:45:22.321Z,96624.16
2022-11-20T10:47:52.461Z,96621.28
2022-11-20T10:50:23.703Z,96619.41
2022-11-20T10:53:06.820Z,96625.88
2022-11-20T10:55:43.076Z,96613.63
2022-11-20T10:58:16.544Z,96609.22
2022-11-20T11:00:45.660Z,96614.63
2022-11-20T11:03:26.416Z,96602.59
2022-11-20T11:06:02.971Z,96610.22
2022-11-20T11:08:37.365Z,96604.97
2022-11-20T11:11:21.221Z,96610.88
2022-11-20T11:13:49.742Z,96601.91
2022-11-20T11:16:27.252Z,96615.16
2022-11-20T11:19:08.156Z,96608.56
2022-11-20T11:21:42.407Z,96591.81
2022-11-20T11:24:41.811Z,96595.97
2022-11-20T11:27:18.820Z,96582.16
2022-11-20T11:29:48.198Z,96587.28
2022-11-20T11:32:21.645Z,96586.63
2022-11-20T11:35:03.754Z,96587.50
2022-11-20T11:37:37.315Z,96586.69
2022-11-20T11:40:28.056Z,96577.31
2022-11-20T11:43:01.361Z,96572.31
2022-11-20T11:45:29.539Z,96575.09
2022-11-20T11:48:02.599Z,96567.00
2022-11-20T11:50:32.611Z,96568.84
2022-11-20T11:53:11.700Z,96550.47
2022-11-20T11:55:45.550Z,96568.88
2022-11-20T11:58:43.935Z,96572.56
2022-11-20T12:01:28.863Z,96574.03
2022-11-20T12:04:08.034Z,96566.59
2022-11-20T12:06:41.697Z,96553.72
2022-11-20T12:09:13.759Z,96555.00
2022-11-20T12:11:49.912Z,96561.25
2022-11-20T12:14:27.309Z,96555.69
2022-11-20T12:16:58.598Z,96558.16
2022-11-20T12:19:29.470Z,96547.06
2022-11-20T12:22:06.711Z,96546.09
2022-11-20T12:24:54.890Z,96552.06
2022-11-20T12:27:59.732Z,96549.25
2022-11-20T12:30:28.499Z,96544.34
2022-11-20T12:33:42.964Z,96533.44
2022-11-20T12:36:27.856Z,96540.69
2022-11-20T12:39:24.690Z,96533.09
2022-11-20T12:42:38.775Z,96535.84
2022-11-20T12:45:51.650Z,96514.06
2022-11-20T12:48:50.619Z,96519.00
2022-11-20T12:51:54.275Z,96517.44
2022-11-20T12:54:51.899Z,96515.81
2022-11-20T12:57:27.333Z,96504.06
2022-11-20T13:00:21.589Z,96503.59
2022-11-20T13:03:20.157Z,96503.84
2022-11-20T13:06:03.233Z,96505.38
2022-11-20T13:08:36.745Z,96490.41
2022-11-20T13:11:16.440Z,96498.47
2022-11-20T13:13:58.952Z,96487.25
2022-11-20T13:16:35.588Z,96493.09
2022-11-20T13:19:06.074Z,96474.44
2022-11-20T13:21:40.698Z,96481.16
2022-11-20T13:24:22.250Z,96471.75
2022-11-20T13:27:07.034Z,96473.41
2022-11-20T13:29:37.063Z,96467.53
2022-11-20T13:32:08.567Z,96466.22
2022-11-20T13:34:38.058Z,96465.59
2022-11-20T13:37:06.830Z,96467.09
2022-11-20T13:39:37.810Z,96467.41
2022-11-20T13:42:28.939Z,96474.28
2022-11-20T13:45:03.408Z,96467.47
2022-11-20T13:47:32.177Z,96462.66
2022-11-20T13:50:01.611Z,96455.63
2022-11-20T13:52:46.604Z,96459.91
2022-11-20T13:55:24.082Z,96456.88
2022-11-20T13:58:10.019Z,96449.44
2022-11-20T14:00:49.467Z,96454.03
2022-11-20T14:03:43.984Z,96449.72
2022-11-20T14:06:21.970Z,96441.50
2022-11-20T14:08:52.612Z,96443.63
2022-11-20T14:11:25.260Z,96448.19
2022-11-20T14:14:06.018Z,96450.03
2022-11-20T14:16:38.979Z,96439.59
2022-11-20T14:19:29.904Z,96442.81
2022-11-20T14:22:12.685Z,96441.19
2022-11-20T14:24:41.145Z,96424.38
2022-11-20T14:27:16.997Z,96434.41
2022-11-20T14:29:49.323Z,96427.16
2022-11-20T14:32:20.189Z,96420.28
2022-11-20T14:34:52.258Z,96424.63
2022-11-20T14:37:25.874Z,96417.81
2022-11-20T14:39:56.901Z,96423.41
2022-11-20T14:42:27.927Z,96423.28
2022-11-20T14:45:00.601Z,96418.88
2022-11-20T14:47:32.361Z,96416.69
2022-11-20T14:50:08.667Z,96429.44
2022-11-20T14:52:38.589Z,96426.03
2022-11-20T14:55:07.994Z,96427.50
2022-11-20T14:57:38.595Z,96427.03
2022-11-20T15:00:21.643Z,96413.22
2022-11-20T15:02:52.014Z,96414.00
2022-11-20T15:05:23.733Z,96418.69
2022-11-20T15:08:07.189Z,96403.75
2022-11-20T15:10:38.116Z,96408.69
2022-11-20T15:13:13.628Z,96401.28
2022-11-20T15:15:49.250Z,96391.09
2022-11-20T15:18:20.537Z,96394.81
2022-11-20T15:20:49.519Z,96385.59
2022-11-20T15:23:20.505Z,96388.75
2022-11-20T15:25:50.724Z,96384.97
2022-11-20T15:28:23.308Z,96386.53
2022-11-20T15:30:53.866Z,96384.28
2022-11-20T15:33:22.322Z,96388.94
2022-11-20T15:35:50.851Z,96385.41
2022-11-20T15:38:19.406Z,96380.28
2022-11-20T15:40:48.171Z,96373.69
2022-11-20T15:43:17.148Z,96364.50
2022-11-20T15:45:48.851Z,96374.09
2022-11-20T15:48:22.558Z,96367.00
2022-11-20T15:50:56.828Z,96360.53
2022-11-20T15:53:25.761Z,96355.91
2022-11-20T15:55:54.333Z,96361.81
2022-11-20T15:58:23.961Z,96352.53
2022-11-20T16:00:54.046Z,96348.97
2022-11-20T16:03:25.007Z,96349.59
2022-11-20T16:05:53.566Z,96339.94
2022-11-20T16:08:22.019Z,96354.28
2022-11-20T16:10:50.595Z,96354.88
2022-11-20T16:13:37.567Z,96357.22
2022-11-20T16:16:11.013Z,96349.78
2022-11-20T16:18:40.857Z,96350.97
2022-11-20T16:21:14.643Z,96347.47
2022-11-20T16:23:44.107Z,96352.44
2022-11-20T16:26:14.773Z,96342.56
2022-11-20T16:28:43.280Z,96350.91
2022-11-20T16:31:13.609Z,96340.97
2022-11-20T16:33:43.940Z,96346.25
2022-11-20T16:36:15.259Z,96345.50
2022-11-20T16:38:44.411Z,96343.69
2022-11-20T16:41:15.373Z,96344.03
2022-11-20T16:43:49.812Z,96336.38
2022-11-20T16:46:20.314Z,96337.81
2022-11-20T16:48:56.768Z,96326.91
2022-11-20T16:51:27.491Z,96351.41
2022-11-20T16:53:57.246Z,96344.06
2022-11-20T16:56:28.929Z,96340.16
2022-11-20T16:58:59.898Z,96345.00
2022-11-20T17:01:29.872Z,96335.56
2022-11-20T17:04:03.524Z,96330.78
2022-11-20T17:06:34.607Z,96323.78
2022-11-20T17:09:04.980Z,96324.94
2022-11-20T17:11:33.893Z,96321.78
2022-11-20T17:14:03.937Z,96319.13
2022-11-20T17:16:32.764Z,96322.94
2022-11-20T17:19:03.879Z,96330.31
2022-11-20T17:21:33.064Z,96327.84
2022-11-20T17:24:03.726Z,96330.50
2022-11-20T17:26:33.011Z,96333.84
2022-11-20T17:29:03.942Z,96324.66
2022-11-20T17:31:34.473Z,96333.06
2022-11-20T17:34:04.806Z,96329.00
2022-11-20T17:36:34.743Z,96318.22
2022-11-20T17:39:03.392Z,96309.25
2022-11-20T17:41:32.100Z,96322.59
2022-11-20T17:44:03.009Z,96318.28
2022-11-20T17:46:34.068Z,96309.84
2022-11-20T17:49:05.748Z,96301.63
2022-11-20T17:51:37.193Z,96319.13
2022-11-20T17:54:08.510Z,96314.88
2022-11-20T17:56:54.935Z,96323.41
2022-11-20T17:59:24.053Z,96325.94
2022-11-20T18:01:55.115Z,96325.88
2022-11-20T18:04:26.395Z,96322.06
2022-11-20T18:06:55.025Z,96313.47
2022-11-20T18:09:23.556Z,96313.84
2022-11-20T18:11:52.112Z,96301.69
2022-11-20T18:14:34.658Z,96299.41
2022-11-20T18:17:06.895Z,96301.28
2022-11-20T18:19:51.335Z,96297.25
2022-11-20T18:22:24.026Z,96298.44
2022-11-20T18:24:55.110Z,96307.63
2022-11-20T18:27:24.316Z,96299.56
2022-11-20T18:29:52.857Z,96299.03
2022-11-20T18:32:22.754Z,96297.28
2022-11-20T18:34:54.460Z,96292.59
2022-11-20T18:37:24.819Z,96286.38
2022-11-20T18:39:53.704Z,96295.19
2022-11-20T18:42:39.901Z,96291.13
2022-11-20T18:45:09.784Z,96287.38
2022-11-20T18:47:40.152Z,96291.16
2022-11-20T18:50:11.522Z,96281.06
2022-11-20T18:52:44.676Z,96289.22
2022-11-20T18:55:14.309Z,96285.47
2022-11-20T18:57:42.941Z,96294.31
2022-11-20T19:00:13.161Z,96296.84
2022-11-20T19:02:43.655Z,96291.38
2022-11-20T19:05:16.022Z,96279.00
2022-11-20T19:07:44.816Z,96288.59
2022-11-20T19:10:13.647Z,96293.34
2022-11-20T19:12:42.944Z,96290.78
2022-11-20T19:15:13.793Z,96297.38
2022-11-20T19:17:42.247Z,96301.53
2022-11-20T19:20:13.668Z,96298.53
2022-11-20T19:22:42.235Z,96307.13
2022-11-20T19:25:11.103Z,96304.56
2022-11-20T19:27:39.526Z,96301.34
2022-11-20T19:30:09.709Z,96308.63
2022-11-20T19:32:38.294Z,96309.13
2022-11-20T19:35:07.928Z,96303.47
2022-11-20T19:37:38.809Z,96321.50
2022-11-20T19:40:08.893Z,96322.66
2022-11-20T19:42:39.557Z,96319.97
2022-11-20T19:45:11.435Z,96325.75
2022-11-20T19:50:29.018Z,96339.75
2022-11-20T19:53:00.007Z,96316.59
2022-11-20T19:55:28.654Z,96331.19
2022-11-20T19:57:58.736Z,96339.28
2022-11-20T20:00:32.333Z,96319.25
2022-11-20T20:03:01.585Z,96337.13
2022-11-20T20:05:30.469Z,96331.34
2022-11-20T20:08:01.197Z,96333.75
2022-11-20T20:10:29.943Z,96343.59
2022-11-20T20:12:58.781Z,96344.38
2022-11-20T20:15:27.960Z,96341.41
2022-11-20T20:17:57.886Z,96340.16
2022-11-20T20:20:27.742Z,96344.50
2022-11-20T20:22:57.834Z,96335.16
2022-11-20T20:25:29.701Z,96352.09
2022-11-20T20:27:58.693Z,96348.19
2022-11-20T20:30:28.403Z,96352.81
2022-11-20T20:32:57.304Z,96335.59
2022-11-20T20:35:26.840Z,96324.75
2022-11-20T20:37:55.624Z,96333.31
2022-11-20T20:40:24.392Z,96332.06
2022-11-20T20:42:54.866Z,96334.91
2022-11-20T20:45:23.814Z,96328.63
2022-11-20T20:47:53.042Z,96338.47
2022-11-20T20:50:22.967Z,96351.28
2022-11-20T20:52:51.623Z,96348.78
2022-11-20T20:55:20.340Z,96357.13
2022-11-20T20:57:49.162Z,96365.53
2022-11-20T21:00:32.138Z,96362.19
2022-11-20T21:03:00.867Z,96377.94
2022-11-20T21:05:32.441Z,96376.97
2022-11-20T21:08:18.311Z,96384.19
2022-11-20T21:10:46.945Z,96384.31
2022-11-20T21:13:16.491Z,96386.50
2022-11-20T21:15:49.813Z,96390.41
2022-11-20T21:18:21.580Z,96386.34
2022-11-20T21:21:09.079Z,96392.72
2022-11-20T21:23:38.211Z,96389.53
2022-11-20T21:26:09.328Z,96399.03
2022-11-20T21:28:42.089Z,96382.97
2022-11-20T21:31:15.723Z,96401.81
2022-11-20T21:33:47.168Z,96409.69
2022-11-20T21:36:18.368Z,96419.72
2022-11-20T21:38:48.292Z,96401.38
2022-11-20T21:41:26.653Z,96417.13
2022-11-20T21:44:29.739Z,96407.66
2022-11-20T21:46:47.666Z,96411.75
2022-11-20T21:49:18.216Z,96407.28
2022-11-20T21:51:47.217Z,96394.88
2022-11-20T21:54:17.482Z,96425.97
2022-11-20T21:56:46.028Z,96416.34
2022-11-20T21:59:15.011Z,96418.84
2022-11-20T22:01:45.358Z,96413.56
2022-11-20T22:04:15.742Z,96424.94
2022-11-20T22:06:45.178Z,96420.81
2022-11-20T22:09:20.388Z,96425.06
2022-11-20T22:11:49.211Z,96423.00
2022-11-20T22:14:24.742Z,96421.56
2022-11-20T22:16:55.395Z,96432.06
2022-11-20T22:19:25.314Z,96422.25
2022-11-20T22:21:54.042Z,96415.16
2022-11-20T22:24:24.277Z,96427.63
2022-11-20T22:26:53.188Z,96425.41
2022-11-20T22:29:22.765Z,96425.75
2022-11-20T22:31:54.729Z,96429.00
2022-11-20T22:34:24.876Z,96414.13
2022-11-20T22:36:53.896Z,96421.06
2022-11-20T22:39:23.112Z,96420.28
2022-11-20T22:41:51.858Z,96401.31
2022-11-20T22:44:20.906Z,96403.94
2022-11-20T22:46:49.788Z,96391.75
2022-11-20T22:49:20.759Z,96397.84
2022-11-20T22:51:51.808Z,96376.69
2022-11-20T22:54:20.489Z,96395.81
2022-11-20T22:56:50.219Z,96401.78
2022-11-20T22:59:19.072Z,96409.63
2022-11-20T23:01:49.809Z,96400.72
2022-11-20T23:04:22.921Z,96412.53
2022-11-20T23:06:53.598Z,96414.66
2022-11-20T23:09:22.667Z,96416.03
2022-11-20T23:11:51.688Z,96413.34
2022-11-20T23:14:27.518Z,96402.47
2022-11-20T23:16:56.390Z,96412.25
2022-11-20T23:19:27.905Z,96395.69
2022-11-20T23:21:58.366Z,96412.38
2022-11-20T23:24:27.099Z,96407.78
2022-11-20T23:26:56.763Z,96401.16
2022-11-20T23:29:25.352Z,96402.25
2022-11-20T23:31:56.787Z,96378.94
2022-11-20T23:34:27.099Z,96382.34
2022-11-20T23:36:56.210Z,96395.56
2022-11-20T23:39:27.323Z,96394.50
2022-11-20T23:41:56.006Z,96400.59
2022-11-20T23:44:28.847Z,96382.88
2022-11-20T23:47:12.578Z,96395.59
2022-11-20T23:49:51.159Z,96381.03
2022-11-20T23:52:26.980Z,96391.84
2022-11-20T23:54:55.968Z,96388.13
2022-11-20T23:57:27.056Z,96383.72
2022-11-20T23:59:55.659Z,96388.41
